Time;durP1;ratioP1;P1;durP2;ratioP2;P2;SDS_P1;SDS_P2;PMS_P1;PMS_P2;Temp;Humidity;BMP_temperature;BMP_pressure;BME280_temperature;BME280_humidity;BME280_pressure;Samples;Min_cycle;Max_cycle;Signal;HPM_P1;HPM_P2
2022/05/09 00:01:23;;;;;;;1.05;0.85;;;;;;;7.04;68.70;99432.34;5077664;28;20080;-59
2022/05/09 00:03:54;;;;;;;3.63;1.23;;;;;;;6.99;68.37;99428.94;5077719;28;20048;-57
2022/05/09 00:06:24;;;;;;;3.47;0.98;;;;;;;6.93;68.55;99434.25;5077749;28;20056;-57
2022/05/09 00:08:55;;;;;;;1.33;1.10;;;;;;;6.84;68.81;99430.91;5074278;28;20092;-57
2022/05/09 00:11:26;;;;;;;2.13;1.00;;;;;;;6.94;69.60;99430.75;5072985;28;20055;-58
2022/05/09 00:13:57;;;;;;;1.15;1.00;;;;;;;6.95;68.76;99435.09;5067719;28;20080;-57
2022/05/09 00:16:33;;;;;;;1.60;1.00;;;;;;;7.01;68.87;99428.03;5063506;28;20072;-57
2022/05/09 00:19:05;;;;;;;1.35;1.00;;;;;;;6.83;69.22;99377.25;5068311;28;20058;-57
2022/05/09 00:21:37;;;;;;;4.00;1.13;;;;;;;6.84;67.22;99378.09;5077474;28;20068;-56
2022/05/09 00:24:12;;;;;;;1.75;1.00;;;;;;;7.06;67.67;99435.78;5074072;28;20143;-55
2022/05/09 00:26:43;;;;;;;2.28;1.00;;;;;;;6.98;68.73;99437.63;5072656;28;20220;-57
2022/05/09 00:29:14;;;;;;;1.23;1.00;;;;;;;7.00;69.50;99430.69;5073179;28;20048;-57
2022/05/09 00:31:49;;;;;;;3.58;1.23;;;;;;;7.10;69.63;99427.06;5072788;28;20052;-57
2022/05/09 00:34:21;;;;;;;1.55;1.00;;;;;;;7.04;67.14;99432.34;5073172;28;20257;-56
2022/05/09 00:36:55;;;;;;;1.70;1.13;;;;;;;6.95;68.10;99438.53;5072243;28;20059;-57
2022/05/09 00:39:26;;;;;;;5.03;1.55;;;;;;;6.95;69.20;99432.50;5072636;28;20051;-56
2022/05/09 00:41:56;;;;;;;2.10;0.93;;;;;;;6.86;65.45;99417.88;5072320;28;20060;-57
2022/05/09 00:44:27;;;;;;;2.33;0.93;;;;;;;6.77;66.96;99431.03;5070032;28;20055;-56
2022/05/09 00:47:00;;;;;;;3.65;1.10;;;;;;;6.84;66.84;99425.72;5071160;28;20490;-56
2022/05/09 00:49:35;;;;;;;1.35;1.15;;;;;;;6.99;66.59;99423.75;5072039;28;20052;-55
2022/05/09 00:52:10;;;;;;;1.95;1.00;;;;;;;7.22;67.48;99419.06;5072054;28;20106;-57
2022/05/09 00:54:45;;;;;;;2.35;1.40;;;;;;;7.40;67.06;99414.47;5072312;28;20402;-56
2022/05/09 00:57:20;;;;;;;2.38;1.10;;;;;;;7.43;65.31;99415.25;5071853;28;20072;-56
2022/05/09 00:59:57;;;;;;;5.20;2.22;;;;;;;7.67;65.54;99419.16;5072527;28;20040;-56
2022/05/09 01:02:30;;;;;;;2.25;0.98;;;;;;;7.84;63.90;99417.97;5072374;28;20059;-56
2022/05/09 01:05:02;;;;;;;0.95;0.90;;;;;;;7.90;63.31;99423.09;5072440;28;20055;-56
2022/05/09 01:07:33;;;;;;;4.43;1.42;;;;;;;7.95;63.24;99423.84;5072025;28;20053;-56
2022/05/09 01:10:04;;;;;;;1.30;0.85;;;;;;;7.96;62.44;99420.34;5071939;28;20052;-55
2022/05/09 01:12:38;;;;;;;11.50;3.10;;;;;;;8.21;64.44;99415.53;5072049;28;20052;-56
2022/05/09 01:15:12;;;;;;;8.73;3.55;;;;;;;8.42;64.78;99419.47;5072250;28;20064;-56
2022/05/09 01:17:48;;;;;;;6.90;2.50;;;;;;;8.55;63.96;99420.91;5072294;28;20052;-57
2022/05/09 01:20:19;;;;;;;3.05;0.93;;;;;;;8.46;61.20;99418.50;5072756;28;20060;-56
2022/05/09 01:22:51;;;;;;;4.30;0.80;;;;;;;8.45;59.14;99403.78;5072879;28;20108;-56
2022/05/09 01:25:22;;;;;;;2.78;1.27;;;;;;;8.34;58.44;99417.00;5072629;28;20111;-56
2022/05/09 01:27:53;;;;;;;2.25;1.00;;;;;;;8.18;57.49;99408.63;5072598;28;20072;-57
2022/05/09 01:30:26;;;;;;;1.55;1.00;;;;;;;8.13;59.45;99371.44;5072317;28;20059;-57
2022/05/09 01:32:59;;;;;;;1.38;0.88;;;;;;;8.46;58.29;99410.69;5072702;28;20066;-56
2022/05/09 01:35:36;;;;;;;0.85;0.70;;;;;;;8.29;55.32;99402.38;5072485;28;20082;-55
2022/05/09 01:38:16;;;;;;;0.65;0.60;;;;;;;8.10;56.69;99407.09;5071330;28;20159;-57
2022/05/09 01:40:46;;;;;;;2.55;0.90;;;;;;;8.41;57.12;99407.34;5070816;28;20100;-56
2022/05/09 01:43:31;;;;;;;0.70;0.70;;;;;;;8.79;57.08;99408.25;5071383;28;20208;-55
2022/05/09 01:46:02;;;;;;;1.27;0.85;;;;;;;8.97;57.32;99413.03;5072616;28;20079;-55
2022/05/09 01:51:20;;;;;;;0.73;0.73;;;;;;;8.73;56.18;99403.19;5075956;28;20116;-55
2022/05/09 01:53:53;;;;;;;1.45;0.95;;;;;;;8.54;57.13;99423.56;5075751;28;20046;-55
2022/05/09 01:56:25;;;;;;;2.55;0.90;;;;;;;7.91;59.71;99377.97;5074171;28;20072;-55
2022/05/09 01:58:57;;;;;;;4.32;1.10;;;;;;;8.05;62.62;99438.41;5075921;28;20467;-55
2022/05/09 02:01:30;;;;;;;0.90;0.73;;;;;;;8.11;62.44;99427.88;5073902;28;20041;-54
2022/05/09 02:04:01;;;;;;;1.10;0.90;;;;;;;7.97;62.32;99442.91;5072384;28;20048;-54
2022/05/09 02:06:32;;;;;;;1.38;0.70;;;;;;;7.55;62.25;99425.44;5074992;28;20083;-54
2022/05/09 02:09:05;;;;;;;0.88;0.77;;;;;;;7.32;63.39;99433.63;5071959;28;20040;-54
2022/05/09 02:11:35;;;;;;;0.63;0.63;;;;;;;7.03;62.71;99415.03;5074911;28;20289;-54
2022/05/09 02:14:06;;;;;;;1.42;0.70;;;;;;;6.78;62.59;99419.75;5075897;28;20120;-55
2022/05/09 02:16:37;;;;;;;1.60;0.95;;;;;;;6.73;65.07;99417.22;5075443;28;20052;-55
2022/05/09 02:19:08;;;;;;;1.10;1.00;;;;;;;7.03;66.70;99441.03;5075685;28;20377;-54
2022/05/09 02:21:39;;;;;;;2.47;1.10;;;;;;;7.30;67.40;99435.38;5075507;28;20139;-54
2022/05/09 02:24:12;;;;;;;1.00;0.90;;;;;;;7.64;67.70;99428.75;5074963;28;20064;-54
2022/05/09 02:26:43;;;;;;;3.28;1.30;;;;;;;7.80;68.00;99435.41;5075339;28;20052;-56
2022/05/09 02:29:14;;;;;;;1.40;1.20;;;;;;;7.89;67.16;99434.38;5075410;28;20060;-55
2022/05/09 02:31:45;;;;;;;2.20;1.10;;;;;;;7.85;66.40;99422.31;5075408;28;20406;-54
2022/05/09 02:34:16;;;;;;;1.70;1.00;;;;;;;8.04;66.50;99439.28;5074926;28;20119;-55
2022/05/09 02:36:46;;;;;;;1.00;0.90;;;;;;;8.16;64.99;99443.38;5075596;28;20845;-55
2022/05/09 02:39:19;;;;;;;3.92;1.25;;;;;;;8.11;60.07;99438.28;5075164;28;20106;-55
2022/05/09 02:41:49;;;;;;;1.88;1.17;;;;;;;7.95;58.45;99423.84;5075404;28;20048;-55
2022/05/09 02:44:20;;;;;;;0.63;0.60;;;;;;;7.50;58.27;99432.47;5074869;28;20366;-55
2022/05/09 02:46:50;;;;;;;2.97;1.10;;;;;;;7.39;61.06;99429.19;5075061;28;20048;-55
2022/05/09 02:49:21;;;;;;;1.52;0.95;;;;;;;7.59;61.17;99434.06;5075259;28;20103;-56
2022/05/09 02:51:52;;;;;;;1.02;0.70;;;;;;;7.76;59.99;99419.00;5075130;28;20060;-56
2022/05/09 02:54:24;;;;;;;0.95;0.80;;;;;;;7.88;59.00;99417.06;5074998;28;20048;-56
2022/05/09 02:56:55;;;;;;;0.82;0.70;;;;;;;7.84;58.88;99431.00;5074695;28;20062;-56
2022/05/09 02:59:25;;;;;;;1.65;1.33;;;;;;;7.98;59.39;99431.59;5074564;28;20056;-54
2022/05/09 03:01:56;;;;;;;0.98;0.63;;;;;;;8.05;59.61;99425.38;5074676;28;20060;-56
2022/05/09 03:04:41;;;;;;;1.92;0.88;;;;;;;8.12;60.44;99437.41;5074773;28;20067;-56
2022/05/09 03:07:13;;;;;;;4.10;2.00;;;;;;;8.29;58.33;99423.19;5074650;28;20242;-55
2022/05/09 03:09:47;;;;;;;1.20;1.05;;;;;;;8.05;57.76;99351.69;5074347;28;20056;-55
2022/05/09 03:12:19;;;;;;;2.38;1.73;;;;;;;8.47;59.54;99430.66;5074413;28;20258;-55
2022/05/09 03:14:50;;;;;;;0.63;0.63;;;;;;;8.41;57.54;99428.16;5074899;28;20048;-56
2022/05/09 03:17:21;;;;;;;1.15;1.02;;;;;;;8.34;57.63;99431.78;5074101;28;20115;-56
2022/05/09 03:19:52;;;;;;;0.93;0.70;;;;;;;8.44;57.70;99435.94;5074172;28;20052;-56
2022/05/09 03:22:28;;;;;;;1.98;1.40;;;;;;;8.20;58.32;99440.69;5073965;28;20064;-56
2022/05/09 03:25:01;;;;;;;0.75;0.73;;;;;;;8.08;56.86;99446.13;5073838;28;20520;-55
2022/05/09 03:27:31;;;;;;;3.20;0.90;;;;;;;8.06;58.18;99447.06;5073924;28;20086;-56
2022/05/09 03:30:02;;;;;;;3.10;1.27;;;;;;;7.92;56.73;99452.53;5073733;28;20380;-55
2022/05/09 03:32:34;;;;;;;1.30;1.10;;;;;;;7.78;56.70;99453.63;5073926;28;20053;-56
2022/05/09 03:35:04;;;;;;;1.67;1.40;;;;;;;7.68;58.35;99459.88;5073605;28;20079;-56
2022/05/09 03:37:35;;;;;;;0.80;0.75;;;;;;;7.50;57.77;99457.59;5073878;28;20080;-55
2022/05/09 03:40:09;;;;;;;2.13;0.80;;;;;;;7.48;59.82;99456.75;5073611;28;20056;-56
2022/05/09 03:42:40;;;;;;;0.95;0.90;;;;;;;7.38;58.52;99457.81;5073730;28;20059;-56
2022/05/09 03:45:11;;;;;;;2.33;0.90;;;;;;;7.17;60.57;99465.06;5073639;28;20078;-56
2022/05/09 03:47:42;;;;;;;1.00;0.90;;;;;;;7.25;60.59;99463.19;5073609;28;20083;-57
2022/05/09 03:50:15;;;;;;;4.00;1.40;;;;;;;7.42;61.12;99464.69;5073454;28;20116;-56
2022/05/09 03:52:45;;;;;;;0.70;0.70;;;;;;;7.09;60.38;99387.25;5073505;28;20044;-56
2022/05/09 03:55:18;;;;;;;5.68;1.20;;;;;;;7.60;60.50;99468.69;5072974;28;20669;-55
2022/05/09 03:57:51;;;;;;;1.98;1.42;;;;;;;7.51;60.55;99472.31;5073383;28;20056;-55
2022/05/09 04:00:25;;;;;;;2.15;1.20;;;;;;;6.94;59.27;99384.00;5074160;28;20389;-56
2022/05/09 04:02:56;;;;;;;0.95;0.85;;;;;;;7.34;57.52;99483.84;5073583;28;20075;-54
2022/05/09 04:05:30;;;;;;;4.05;1.52;;;;;;;6.99;58.98;99452.31;5073373;28;20095;-58
2022/05/09 04:08:02;;;;;;;0.50;0.50;;;;;;;7.13;57.71;99495.41;5072960;28;20056;-56
2022/05/09 04:10:36;;;;;;;1.17;0.88;;;;;;;6.75;59.04;99457.00;5073089;28;20080;-55
2022/05/09 04:13:07;;;;;;;6.72;0.60;;;;;;;6.62;59.06;99487.47;5073056;28;20060;-56
2022/05/09 04:18:28;;;;;;;2.88;0.63;;;;;;;6.31;60.46;99515.50;5072802;28;20545;-54
2022/05/09 04:20:59;;;;;;;0.80;0.80;;;;;;;6.13;60.78;99507.94;5072758;28;20037;-55
2022/05/09 04:23:30;;;;;;;0.60;0.60;;;;;;;6.10;60.10;99510.56;5072400;28;20082;-55
2022/05/09 04:26:03;;;;;;;0.80;0.80;;;;;;;6.18;60.05;99495.78;5070385;28;20087;-55
2022/05/09 04:28:36;;;;;;;1.20;1.02;;;;;;;5.93;60.36;99443.28;5073026;28;20067;-56
2022/05/09 04:31:06;;;;;;;0.80;0.75;;;;;;;6.45;59.55;99504.97;5072922;28;20071;-55
2022/05/09 04:33:37;;;;;;;0.68;0.60;;;;;;;6.24;59.21;99485.31;5072171;28;20110;-55
2022/05/09 04:36:08;;;;;;;0.70;0.70;;;;;;;6.37;60.01;99512.84;5073006;28;20048;-56
2022/05/09 04:38:42;;;;;;;0.80;0.80;;;;;;;6.42;60.65;99515.41;5072594;28;20056;-54
2022/05/09 04:41:14;;;;;;;0.70;0.70;;;;;;;6.31;59.83;99492.16;5073074;28;20111;-56
2022/05/09 04:43:45;;;;;;;1.35;0.80;;;;;;;6.77;59.30;99501.97;5072783;28;20044;-56
2022/05/09 04:46:17;;;;;;;0.85;0.60;;;;;;;6.91;59.34;99505.25;5072296;28;20124;-55
2022/05/09 04:48:48;;;;;;;0.60;0.60;;;;;;;6.96;57.24;99502.56;5072530;28;20691;-55
2022/05/09 04:51:18;;;;;;;2.13;1.05;;;;;;;7.04;58.61;99510.25;5072614;28;20119;-56
2022/05/09 04:53:49;;;;;;;0.95;0.73;;;;;;;6.96;57.77;99502.56;5070356;28;20059;-57
2022/05/09 04:56:22;;;;;;;0.82;0.70;;;;;;;6.86;59.06;99504.47;5072871;28;20048;-55
2022/05/09 04:58:52;;;;;;;1.63;0.80;;;;;;;6.83;58.14;99504.50;5071526;28;20067;-56
2022/05/09 05:01:23;;;;;;;0.70;0.70;;;;;;;6.77;56.23;99486.41;5070639;28;20104;-55
2022/05/09 05:03:54;;;;;;;0.60;0.60;;;;;;;6.90;58.30;99506.13;5070724;28;20075;-54
2022/05/09 05:06:24;;;;;;;0.80;0.80;;;;;;;6.99;58.07;99502.56;5069266;28;20308;-55
2022/05/09 05:08:55;;;;;;;0.60;0.60;;;;;;;6.90;56.99;99498.34;5072572;28;20087;-55
2022/05/09 05:11:27;;;;;;;0.60;0.60;;;;;;;7.02;57.47;99491.28;5072940;28;20123;-55
2022/05/09 05:13:58;;;;;;;2.00;0.60;;;;;;;6.96;56.65;99491.34;5072066;28;20056;-56
2022/05/09 05:19:13;;;;;;;0.60;0.60;;;;;;;6.85;57.42;99505.34;5071354;28;20056;-56
2022/05/09 05:21:44;;;;;;;3.38;0.75;;;;;;;7.03;58.34;99503.38;5073934;28;20056;-55
2022/05/09 05:24:21;;;;;;;1.10;0.60;;;;;;;6.65;57.48;99455.41;5074143;28;20051;-56
2022/05/09 05:26:54;;;;;;;1.27;1.00;;;;;;;6.86;57.63;99507.06;5075050;28;20143;-57
2022/05/09 05:29:24;;;;;;;1.42;1.02;;;;;;;6.66;58.42;99519.41;5076336;28;20059;-57
2022/05/09 05:31:55;;;;;;;1.58;1.20;;;;;;;6.51;58.92;99528.25;5075758;28;20079;-55
2022/05/09 05:34:26;;;;;;;1.20;1.00;;;;;;;6.42;60.08;99520.59;5076305;28;20095;-55
2022/05/09 05:36:57;;;;;;;2.47;0.80;;;;;;;6.34;60.13;99533.66;5076573;28;20103;-56
2022/05/09 05:39:28;;;;;;;0.88;0.80;;;;;;;6.28;59.27;99523.31;5075755;28;20076;-56
2022/05/09 05:42:00;;;;;;;1.10;1.00;;;;;;;6.34;59.28;99533.66;5075957;28;20048;-55
2022/05/09 05:44:31;;;;;;;2.05;1.25;;;;;;;6.35;59.72;99530.16;5076356;28;20064;-55
2022/05/09 05:47:05;;;;;;;0.75;0.75;;;;;;;6.13;59.27;99519.16;5075841;28;20052;-56
2022/05/09 05:49:36;;;;;;;1.58;0.88;;;;;;;6.25;59.48;99544.13;5075722;28;20060;-56
2022/05/09 05:52:08;;;;;;;1.60;1.10;;;;;;;6.26;59.97;99530.25;5076182;28;20084;-56
2022/05/09 05:54:40;;;;;;;1.77;1.00;;;;;;;6.16;59.85;99544.19;5076350;28;20162;-56
2022/05/09 05:57:21;;;;;;;0.98;0.90;;;;;;;6.15;59.39;99547.69;5075771;28;20054;-56
2022/05/09 05:59:56;;;;;;;1.30;1.20;;;;;;;6.22;59.41;99559.72;5075445;28;20056;-57
2022/05/09 06:02:29;;;;;;;1.17;1.08;;;;;;;6.08;58.72;99574.56;5075903;28;20082;-58
2022/05/09 06:04:59;;;;;;;0.90;0.90;;;;;;;6.00;59.12;99566.84;5076013;28;20045;-55
2022/05/09 06:07:30;;;;;;;1.05;0.90;;;;;;;5.97;60.50;99572.06;5075733;28;20044;-56
2022/05/09 06:10:01;;;;;;;1.35;0.98;;;;;;;5.93;60.87;99583.28;5075533;28;20120;-56
2022/05/09 06:12:33;;;;;;;1.50;1.00;;;;;;;5.93;60.31;99594.50;5075949;28;20071;-56
2022/05/09 06:17:52;;;;;;;1.40;1.08;;;;;;;5.61;60.97;99586.97;5075353;28;20068;-56
2022/05/09 06:20:23;;;;;;;1.73;1.00;;;;;;;5.50;62.16;99610.38;5075704;28;20060;-55
2022/05/09 06:22:56;;;;;;;1.42;1.10;;;;;;;5.51;62.38;99625.06;5075620;28;20059;-56
2022/05/09 06:25:28;;;;;;;1.70;1.00;;;;;;;5.42;63.22;99612.19;5075938;28;20060;-55
2022/05/09 06:28:00;;;;;;;2.53;1.05;;;;;;;5.40;62.85;99626.88;5075490;28;20058;-56
2022/05/09 06:30:31;;;;;;;2.88;1.10;;;;;;;5.35;63.49;99641.56;5075279;28;20128;-56
2022/05/09 06:33:02;;;;;;;2.55;1.80;;;;;;;5.38;64.13;99641.56;5074777;28;20052;-55
2022/05/09 06:35:33;;;;;;;7.35;2.88;;;;;;;5.55;65.01;99660.47;5075536;28;20080;-57
2022/05/09 06:38:06;;;;;;;2.53;1.40;;;;;;;5.64;65.48;99662.13;5075010;28;20045;-55
2022/05/09 06:40:37;;;;;;;1.20;1.10;;;;;;;5.59;64.92;99677.72;5075101;28;20056;-53
2022/05/09 06:43:10;;;;;;;0.98;0.93;;;;;;;5.46;64.95;99670.84;5075672;28;20048;-56
2022/05/09 06:45:40;;;;;;;2.20;1.30;;;;;;;5.56;65.14;99677.72;5075050;28;20080;-55
2022/05/09 06:48:12;;;;;;;1.95;1.25;;;;;;;5.61;65.38;99681.13;5074714;28;20060;-56
2022/05/09 06:50:43;;;;;;;2.40;1.30;;;;;;;5.69;65.38;99685.44;5075219;28;20232;-57
2022/05/09 06:53:14;;;;;;;2.13;1.30;;;;;;;5.76;65.10;99690.56;5075021;28;20464;-57
2022/05/09 06:55:49;;;;;;;2.40;1.10;;;;;;;5.60;64.55;99645.75;5074824;28;20513;-56
2022/05/09 06:58:22;;;;;;;2.45;1.52;;;;;;;5.44;64.49;99638.06;5074771;28;20262;-57
2022/05/09 07:00:54;;;;;;;1.10;1.00;;;;;;;5.57;64.36;99676.88;5074599;28;20122;-57
2022/05/09 07:03:25;;;;;;;1.20;1.08;;;;;;;5.55;64.90;99670.81;5075033;28;20978;-55
2022/05/09 07:05:56;;;;;;;1.80;1.40;;;;;;;5.50;64.66;99646.66;5075086;28;20103;-56
2022/05/09 07:08:32;;;;;;;1.75;1.30;;;;;;;5.78;65.25;99662.03;5075221;28;20258;-56
2022/05/09 07:11:03;;;;;;;1.33;1.15;;;;;;;5.83;64.28;99676.69;5074794;28;20085;-55
2022/05/09 07:13:44;;;;;;;2.53;1.30;;;;;;;5.80;64.78;99675.88;5074711;28;20119;-56
2022/05/09 07:16:15;;;;;;;1.48;1.20;;;;;;;5.94;64.23;99689.63;5075053;28;20048;-57
2022/05/09 07:18:46;;;;;;;4.20;1.85;;;;;;;5.94;63.70;99688.75;5074325;28;20063;-55
2022/05/09 07:21:17;;;;;;;3.75;1.90;;;;;;;6.07;64.75;99684.38;5073599;28;20060;-56
2022/05/09 07:23:48;;;;;;;1.88;1.48;;;;;;;6.25;63.51;99684.22;5074210;28;20075;-57
2022/05/09 07:26:19;;;;;;;4.75;1.40;;;;;;;6.31;63.13;99684.16;5074265;28;20070;-57
2022/05/09 07:28:51;;;;;;;2.75;1.58;;;;;;;6.26;62.95;99697.19;5074305;28;20093;-57
2022/05/09 07:31:22;;;;;;;3.58;1.60;;;;;;;6.19;62.59;99699.81;5074148;28;20075;-56
2022/05/09 07:33:52;;;;;;;2.05;1.30;;;;;;;6.31;63.49;99698.88;5074620;28;20083;-55
2022/05/09 07:36:23;;;;;;;2.35;1.20;;;;;;;6.34;61.93;99694.53;5073841;28;20075;-57
2022/05/09 07:38:54;;;;;;;2.28;1.30;;;;;;;6.33;62.09;99712.69;5074508;28;20087;-55
2022/05/09 07:41:25;;;;;;;2.50;1.20;;;;;;;6.24;62.06;99708.41;5074280;28;20053;-56
2022/05/09 07:43:58;;;;;;;1.92;1.00;;;;;;;6.10;62.20;99725.84;5073205;28;20052;-56
2022/05/09 07:46:28;;;;;;;1.35;1.25;;;;;;;6.01;62.71;99721.56;5074198;28;20052;-55
2022/05/09 07:49:13;;;;;;;1.70;1.10;;;;;;;5.99;63.79;99724.19;5073556;28;20056;-57
2022/05/09 07:51:44;;;;;;;4.22;1.52;;;;;;;6.00;63.44;99715.53;5074149;28;20075;-56
2022/05/09 07:54:16;;;;;;;4.35;1.20;;;;;;;6.02;63.20;99724.16;5073654;28;20048;-57
2022/05/09 07:56:46;;;;;;;2.38;1.65;;;;;;;6.03;63.16;99723.28;5073689;28;20362;-56
2022/05/09 07:59:20;;;;;;;4.97;1.45;;;;;;;6.00;63.16;99720.72;5073945;28;20111;-57
2022/05/09 08:01:52;;;;;;;1.35;1.25;;;;;;;6.01;62.52;99719.81;5071815;28;20060;-56
2022/05/09 08:04:23;;;;;;;1.30;1.20;;;;;;;6.00;62.89;99715.53;5073680;28;20067;-57
2022/05/09 08:06:53;;;;;;;2.42;1.42;;;;;;;6.02;62.88;99718.13;5073220;28;20049;-57
2022/05/09 08:09:24;;;;;;;4.20;2.30;;;;;;;6.09;63.75;99713.72;5073685;28;20079;-57
2022/05/09 08:11:55;;;;;;;3.08;1.65;;;;;;;6.21;63.57;99729.19;5073187;28;20071;-57
2022/05/09 08:14:28;;;;;;;2.08;1.27;;;;;;;6.27;62.35;99729.19;5073449;28;20056;-57
2022/05/09 08:16:58;;;;;;;3.53;2.15;;;;;;;6.21;63.47;99718.81;5073844;28;20099;-57
2022/05/09 08:19:31;;;;;;;6.53;1.90;;;;;;;6.17;63.41;99697.25;5073719;28;20044;-57
2022/05/09 08:22:01;;;;;;;2.83;1.80;;;;;;;6.44;62.83;99727.31;5073382;28;20254;-57
2022/05/09 08:24:32;;;;;;;2.42;1.60;;;;;;;6.53;62.48;99735.88;5073655;28;20072;-57
2022/05/09 08:27:03;;;;;;;2.00;1.35;;;;;;;6.52;62.20;99744.56;5073327;28;20154;-55
2022/05/09 08:29:35;;;;;;;1.70;1.60;;;;;;;6.50;62.35;99738.50;5073254;28;20063;-55
2022/05/09 08:32:07;;;;;;;1.77;1.30;;;;;;;6.46;61.50;99730.75;5072835;28;20052;-56
2022/05/09 08:34:37;;;;;;;2.65;1.35;;;;;;;6.32;60.61;99735.19;5073315;28;20111;-56
2022/05/09 08:37:08;;;;;;;1.95;1.48;;;;;;;6.21;61.42;99742.19;5072989;28;20060;-55
2022/05/09 08:39:39;;;;;;;2.10;1.80;;;;;;;6.20;61.32;99737.88;5072856;28;20337;-57
2022/05/09 08:42:14;;;;;;;3.38;2.00;;;;;;;6.21;61.97;99729.19;5073026;28;20056;-57
2022/05/09 08:45:12;;;;;;;4.05;2.10;;;;;;;6.08;62.96;99688.69;5073116;28;20079;-57
2022/05/09 08:48:29;;;;;;;2.10;1.60;;;;;;;6.35;63.10;99742.09;5072864;28;20102;-57
2022/05/09 08:51:18;;;;;;;1.92;1.50;;;;;;;6.38;62.68;99736.88;5072563;28;20052;-55
2022/05/09 08:53:56;;;;;;;4.63;1.50;;;;;;;6.36;61.85;99739.47;5073025;28;20067;-57
2022/05/09 08:56:28;;;;;;;2.22;1.50;;;;;;;6.36;61.85;99739.47;5072237;28;20103;-56
2022/05/09 08:59:02;;;;;;;2.00;1.80;;;;;;;6.16;62.11;99715.41;5072636;28;20456;-56
2022/05/09 09:01:39;;;;;;;2.22;1.55;;;;;;;6.39;62.79;99755.03;5066858;28;20445;-57
2022/05/09 09:04:19;;;;;;;2.67;1.42;;;;;;;6.33;60.74;99744.69;5068879;28;20094;-57
2022/05/09 09:07:09;;;;;;;1.17;1.07;;;;;;;6.14;61.10;99732.72;5071980;28;20396;-57
2022/05/09 09:09:56;;;;;;;1.50;1.30;;;;;;;6.09;61.19;99740.56;5068825;28;20981;-56
2022/05/09 09:12:37;;;;;;;2.03;1.42;;;;;;;6.07;61.48;99746.63;5072440;28;20044;-57
2022/05/09 09:15:13;;;;;;;4.70;2.20;;;;;;;6.01;61.45;99750.94;5072174;28;20037;-57
2022/05/09 09:18:04;;;;;;;5.78;1.92;;;;;;;6.03;62.29;99751.81;5072675;28;20060;-55
2022/05/09 09:20:43;;;;;;;2.05;1.48;;;;;;;6.07;62.52;99763.03;5072455;28;20056;-57
2022/05/09 09:23:32;;;;;;;5.00;2.45;;;;;;;6.11;63.19;99762.13;5072296;28;20045;-56
2022/05/09 09:26:06;;;;;;;3.65;2.03;;;;;;;5.91;63.48;99725.06;5072930;28;20048;-57
2022/05/09 09:28:46;;;;;;;2.50;2.00;;;;;;;6.10;62.83;99763.00;5072475;28;20084;-57
2022/05/09 09:31:24;;;;;;;10.57;4.50;;;;;;;5.95;64.60;99778.66;5072613;28;20084;-57
2022/05/09 09:33:59;;;;;;;5.85;3.17;;;;;;;5.72;66.68;99773.56;5072154;28;20052;-57
2022/05/09 09:36:38;;;;;;;4.45;2.47;;;;;;;5.63;67.82;99762.34;5072491;28;20100;-57
2022/05/09 09:39:16;;;;;;;3.10;2.10;;;;;;;5.57;68.56;99772.75;5072257;28;20054;-57
2022/05/09 09:41:48;;;;;;;5.97;2.30;;;;;;;5.43;69.46;99784.88;5072120;28;20080;-56
2022/05/09 09:44:21;;;;;;;6.05;2.88;;;;;;;5.31;70.11;99779.75;5072068;28;20377;-56
2022/05/09 09:47:08;;;;;;;6.80;4.28;;;;;;;5.04;71.17;99776.38;5072124;28;20115;-56
2022/05/09 09:49:43;;;;;;;3.85;2.40;;;;;;;4.75;71.17;99743.59;5071885;28;20437;-56
2022/05/09 09:52:22;;;;;;;4.28;2.20;;;;;;;4.86;71.72;99789.31;5072412;28;20258;-57
2022/05/09 09:54:58;;;;;;;3.30;2.10;;;;;;;4.74;72.25;99788.47;5072363;28;20056;-56
2022/05/09 09:57:35;;;;;;;5.03;1.83;;;;;;;4.69;72.71;99766.91;5072253;28;20059;-56
2022/05/09 10:00:19;;;;;;;3.55;1.52;;;;;;;4.80;72.22;99782.44;5071777;28;20346;-56
2022/05/09 10:02:51;;;;;;;3.78;1.70;;;;;;;4.80;71.43;99802.28;5072348;28;20127;-56
2022/05/09 10:05:34;;;;;;;2.08;1.70;;;;;;;4.78;70.66;99798.81;5072128;28;20087;-56
2022/05/09 10:08:24;;;;;;;2.80;2.10;;;;;;;4.70;70.73;99804.84;5073244;28;20086;-56
2022/05/09 10:11:03;;;;;;;2.75;1.90;;;;;;;4.68;70.79;99804.00;5075659;28;20558;-56
2022/05/09 10:13:40;;;;;;;3.10;2.00;;;;;;;4.69;70.67;99794.50;5075602;28;20075;-55
2022/05/09 10:16:12;;;;;;;2.53;1.73;;;;;;;4.75;71.14;99789.34;5075495;28;20083;-56
2022/05/09 10:18:46;;;;;;;3.30;1.85;;;;;;;4.78;70.85;99783.28;5075402;28;20048;-56
2022/05/09 10:27:10;;;;;;;2.55;1.73;;;;;;;4.75;69.80;99816.06;5073404;28;20056;-56
2022/05/09 10:29:42;;;;;;;4.65;2.13;;;;;;;4.80;70.44;99815.22;5075639;28;20053;-57
2022/05/09 10:32:15;;;;;;;5.30;2.92;;;;;;;4.86;70.49;99812.63;5073660;28;20098;-56
2022/05/09 10:34:55;;;;;;;5.22;3.38;;;;;;;4.86;70.19;99808.28;5075046;28;20060;-56
2022/05/09 10:37:38;;;;;;;2.13;1.70;;;;;;;4.73;70.22;99802.25;5075206;28;20362;-56
2022/05/09 10:40:13;;;;;;;1.80;1.52;;;;;;;4.42;71.60;99808.28;5075475;28;20154;-56
2022/05/09 10:42:47;;;;;;;3.25;1.75;;;;;;;4.16;71.10;99767.72;5072045;28;20254;-56
2022/05/09 10:45:21;;;;;;;4.07;3.10;;;;;;;4.19;70.69;99780.66;5074779;28;20059;-58
2022/05/09 10:47:56;;;;;;;4.25;2.75;;;;;;;4.48;69.85;99800.53;5075162;28;20060;-57
2022/05/09 10:50:31;;;;;;;4.60;1.90;;;;;;;4.33;69.22;99755.69;5075064;28;20721;-57
2022/05/09 10:53:12;;;;;;;1.13;1.00;;;;;;;4.80;66.92;99797.09;5075068;28;20307;-57
2022/05/09 10:55:48;;;;;;;2.75;1.30;;;;;;;5.00;64.57;99800.53;5072126;28;20102;-57
2022/05/09 10:58:26;;;;;;;2.72;1.33;;;;;;;5.19;62.42;99802.22;5073510;28;20135;-57
2022/05/09 11:01:02;;;;;;;1.42;1.20;;;;;;;5.31;62.08;99796.13;5074185;28;20393;-57
2022/05/09 11:03:37;;;;;;;3.15;1.20;;;;;;;5.35;62.27;99817.75;5074565;28;20053;-58
2022/05/09 11:06:30;;;;;;;3.20;1.40;;;;;;;5.39;61.39;99819.44;5074742;28;20495;-58
2022/05/09 11:09:23;;;;;;;2.08;1.40;;;;;;;5.44;61.11;99816.84;5074716;28;20060;-58
2022/05/09 11:12:12;;;;;;;5.50;1.33;;;;;;;5.46;61.72;99813.38;5074652;28;20087;-57
2022/05/09 11:15:00;;;;;;;1.90;1.27;;;;;;;5.46;61.49;99815.97;5074781;28;20127;-58
2022/05/09 11:17:56;;;;;;;2.58;1.75;;;;;;;5.37;62.57;99821.19;5074942;28;20531;-57
2022/05/09 11:20:37;;;;;;;2.95;1.67;;;;;;;4.78;61.65;99710.81;5074666;28;20044;-56
2022/05/09 11:23:21;;;;;;;2.40;1.80;;;;;;;5.41;62.32;99822.91;5074243;28;20052;-56
2022/05/09 11:26:03;;;;;;;8.65;5.63;;;;;;;5.37;62.94;99805.66;5074363;28;20123;-57
2022/05/09 11:29:00;;;;;;;1.70;1.58;;;;;;;5.27;62.74;99814.31;5074412;28;20055;-56
2022/05/09 11:31:39;;;;;;;2.55;1.30;;;;;;;5.22;62.90;99816.03;5074129;28;20354;-56
2022/05/09 11:34:23;;;;;;;3.50;1.48;;;;;;;5.23;63.13;99822.94;5074347;28;20071;-57
2022/05/09 11:37:07;;;;;;;2.05;1.75;;;;;;;5.12;63.83;99826.41;5074329;28;20054;-56
2022/05/09 11:39:49;;;;;;;1.48;1.33;;;;;;;4.99;64.39;99814.31;5071860;28;20052;-57
2022/05/09 11:45:42;;;;;;;1.80;1.60;;;;;;;4.84;66.06;99841.13;5073407;28;20124;-56
2022/05/09 11:48:23;;;;;;;2.90;1.50;;;;;;;4.75;66.31;99836.78;5073909;28;20051;-56
2022/05/09 11:51:01;;;;;;;3.15;2.15;;;;;;;4.79;66.13;99831.59;5073820;28;20051;-57
2022/05/09 11:53:38;;;;;;;3.53;1.83;;;;;;;4.16;66.22;99739.28;5074296;28;20070;-57
2022/05/09 11:56:09;;;;;;;1.42;1.33;;;;;;;4.74;65.88;99824.72;5074316;28;20147;-58
2022/05/09 11:58:44;;;;;;;2.55;1.42;;;;;;;4.59;65.28;99793.63;5071021;28;20347;-57
2022/05/09 12:01:15;;;;;;;1.65;1.40;;;;;;;4.79;64.79;99839.38;5071040;28;20119;-56
2022/05/09 12:03:55;;;;;;;2.83;1.45;;;;;;;4.80;65.10;99833.34;5071697;28;20053;-56
2022/05/09 12:06:42;;;;;;;;;;;;;;;4.85;64.41;99822.13;5074191;28;20139;-56
2022/05/09 12:09:33;;;;;;;9.73;4.93;;;;;;;4.85;64.99;99832.47;5072914;28;19930;-57
2022/05/09 12:12:04;;;;;;;5.47;2.60;;;;;;;4.85;64.75;99841.97;5073792;28;20084;-58
2022/05/09 12:14:52;;;;;;;9.07;4.85;;;;;;;4.82;65.19;99841.94;5073984;28;20054;-57
2022/05/09 12:17:37;;;;;;;6.40;3.55;;;;;;;4.65;64.72;99835.06;5073703;28;20119;-57
2022/05/09 12:20:13;;;;;;;4.35;2.58;;;;;;;4.58;64.98;99812.63;5071822;28;20060;-57
2022/05/09 12:22:49;;;;;;;6.78;4.13;;;;;;;4.79;64.89;99826.41;5073009;28;20052;-57
2022/05/09 12:26:03;;;;;;;4.18;2.50;;;;;;;4.74;65.82;99835.06;5073829;28;20060;-57
2022/05/09 12:28:35;;;;;;;1.80;1.30;;;;;;;4.73;66.12;99833.31;5073790;28;20543;-57
2022/05/09 12:31:29;;;;;;;2.90;1.80;;;;;;;4.79;65.43;99852.31;5071970;28;20053;-58
2022/05/09 12:33:59;;;;;;;3.55;2.03;;;;;;;4.76;65.62;99846.25;5071489;28;20036;-57
2022/05/09 12:36:33;;;;;;;2.60;2.20;;;;;;;4.79;66.19;99858.34;5073156;28;20050;-58